Wednesday, October 18, 2017, 5:51 PM EDT
Back to Local

KFDK, Frederick, Frederick Municipal Airport

Location: Frederick, MD, United States Lat: 39.417
Local Time: 5:51 PM EDT (21:51 GMT) Lon: -77.374
Time Zone: US/Eastern Elev: 301 ft

Show me the last for .
Show Coded

Time T Td Feel RH Dir Speed Gust Alt SLP Vis Weather Sky Remarks
2017-10-18 16:47 72 36 - 26 230° 6 - 30.32 - 10 CLR None
2017-10-18 15:47 72 - - 0 230° 6 - - - 10 CLR None
2017-10-18 14:47 72 39 - 30 250° 6 - 30.35 - 10 CLR None
2017-10-18 13:47 70 37 - 30 220° 7 - 30.37 - 10 CLR None
2017-10-18 12:47 70 39 - 32 250° 5 - 30.40 - 10 CLR None
2017-10-18 11:47 66 41 - 39 - Calm - 30.41 - 10 CLR None
2017-10-18 10:47 61 43 - 51 - Calm - 30.42 - 10 CLR None
2017-10-18 09:47 52 45 - 76 - Calm - 30.42 - 10 CLR None
2017-10-18 08:50 45 45 - 100 - Calm - 30.42 - 10 CLR None
2017-10-18 07:50 39 39 - 100 - Calm - 30.40 - 10 CLR None
2017-10-18 06:50 39 39 - 100 - Calm - 30.39 - 10 CLR None
2017-10-18 06:45 39 39 - 100 - Calm - 30.39 - 10 CLR None
2017-10-18 06:25 39 39 - 100 - Calm - 30.39 - 10 CLR None
2017-10-18 06:05 37 37 - 100 - Calm - 30.38 - 10 CLR None
2017-10-18 05:45 39 39 - 100 - Calm - 30.38 - 10 CLR None
2017-10-18 05:25 39 39 - 100 - Calm - 30.37 - 10 CLR None
2017-10-18 05:05 41 41 - 100 - Calm - 30.37 - 10 CLR None
2017-10-18 04:45 39 39 - 100 - Calm - 30.37 - 10 CLR None
2017-10-18 04:25 41 41 - 100 - Calm - 30.36 - 10 CLR None
2017-10-18 04:05 41 41 - 100 - Calm - 30.35 - 7 CLR None
2017-10-18 03:45 39 39 - 100 - Calm - 30.35 - 10 CLR None
2017-10-18 03:25 41 41 - 100 - Calm - 30.35 - 10 CLR None
2017-10-18 03:05 41 41 38 100 150° 5 - 30.35 - 10 CLR None
2017-10-18 02:45 41 41 39 100 160° 3 - 30.35 - 10 CLR None
2017-10-18 02:25 41 41 - 100 - Calm - 30.36 - 10 CLR None
2017-10-18 02:05 41 41 - 100 - Calm - 30.36 - 10 CLR None
2017-10-18 01:45 41 41 - 100 - Calm - 30.36 - 10 CLR None
2017-10-18 01:25 41 41 - 100 - Calm - 30.35 - 3 BR CLR None
2017-10-18 01:05 43 43 - 100 - Calm - 30.35 - 10 CLR None
2017-10-18 00:45 43 43 - 100 - Calm - 30.36 - 10 CLR None
2017-10-18 00:25 43 43 - 100 - Calm - 30.36 - 10 CLR None
2017-10-18 00:05 43 43 - 100 - Calm - 30.36 - 10 CLR None
2017-10-17 23:45 43 43 - 100 - Calm - 30.36 - 10 CLR None
2017-10-17 23:25 43 43 - 100 - Calm - 30.36 - 10 CLR None
2017-10-17 23:05 45 45 - 100 - Calm - 30.36 - 10 CLR None
2017-10-17 22:45 43 43 - 100 - Calm - 30.36 - 10 CLR None
2017-10-17 22:25 45 45 - 100 - Calm - 30.36 - 10 CLR None
2017-10-17 22:05 45 45 - 100 - Calm - 30.35 - 10 CLR None
2017-10-17 21:45 45 45 - 100 - Calm - 30.35 - 10 CLR None
2017-10-17 21:25 45 45 - 100 - Calm - 30.34 - 10 CLR None
2017-10-17 21:05 46 39 - 75 - Calm - 30.33 - 10 CLR None
2017-10-17 19:47 46 39 - 75 - Calm - 30.31 - 10 CLR None

Support USWX by starting your Amazon purchase here.